createdAt,value
2022-11-17T00:01:21.438Z,10.07
2022-11-17T00:03:49.668Z,10.05
2022-11-17T00:06:17.535Z,10.10
2022-11-17T00:08:44.177Z,10.09
2022-11-17T00:11:10.658Z,10.12
2022-11-17T00:13:55.803Z,10.15
2022-11-17T00:16:22.455Z,10.15
2022-11-17T00:19:07.615Z,10.15
2022-11-17T00:21:34.680Z,10.17
2022-11-17T00:24:01.480Z,10.15
2022-11-17T00:26:30.240Z,10.20
2022-11-17T00:29:01.681Z,10.25
2022-11-17T00:31:48.940Z,10.27
2022-11-17T00:34:17.791Z,10.32
2022-11-17T00:36:52.640Z,10.34
2022-11-17T00:39:21.172Z,10.37
2022-11-17T00:41:47.635Z,10.41
2022-11-17T00:44:14.828Z,10.44
2022-11-17T00:46:42.241Z,10.46
2022-11-17T00:49:10.897Z,10.49
2022-11-17T00:51:38.284Z,10.49
2022-11-17T00:54:06.227Z,10.50
2022-11-17T00:56:32.800Z,10.39
2022-11-17T00:58:59.935Z,10.48
2022-11-17T01:01:26.851Z,10.39
2022-11-17T01:04:02.985Z,10.45
2022-11-17T01:06:41.665Z,10.43
2022-11-17T01:09:20.045Z,10.41
2022-11-17T01:11:47.959Z,10.35
2022-11-17T01:14:24.266Z,10.38
2022-11-17T01:16:51.595Z,10.37
2022-11-17T01:19:18.400Z,10.34
2022-11-17T01:21:45.094Z,10.30
2022-11-17T01:24:13.157Z,10.26
2022-11-17T01:26:41.099Z,10.21
2022-11-17T01:29:10.801Z,10.16
2022-11-17T01:31:39.721Z,10.13
2022-11-17T01:34:07.298Z,10.10
2022-11-17T01:37:08.743Z,10.09
2022-11-17T01:39:35.199Z,10.03
2022-11-17T01:42:13.213Z,10.00
2022-11-17T01:44:48.171Z,9.98
2022-11-17T01:47:38.728Z,9.90
2022-11-17T01:50:34.272Z,9.85
2022-11-17T01:53:05.375Z,9.82
2022-11-17T01:55:41.702Z,9.75
2022-11-17T01:58:16.860Z,9.72
2022-11-17T02:00:43.364Z,9.68
2022-11-17T02:03:10.118Z,9.65
2022-11-17T02:05:47.360Z,9.61
2022-11-17T02:08:16.054Z,9.58
2022-11-17T02:10:48.546Z,9.54
2022-11-17T02:13:19.449Z,9.48
2022-11-17T02:15:45.953Z,9.45
2022-11-17T02:18:12.555Z,9.37
2022-11-17T02:21:09.994Z,9.38
2022-11-17T02:23:58.145Z,9.34
2022-11-17T02:27:02.917Z,9.26
2022-11-17T02:29:35.524Z,9.18
2022-11-17T02:32:09.576Z,9.12
2022-11-17T02:34:48.247Z,9.08
2022-11-17T02:37:28.775Z,8.99
2022-11-17T02:40:08.334Z,8.96
2022-11-17T02:43:03.274Z,8.91
2022-11-17T02:45:37.174Z,8.88
2022-11-17T02:48:10.434Z,8.85
2022-11-17T02:50:39.074Z,8.76
2022-11-17T02:53:06.213Z,8.79
2022-11-17T02:55:35.705Z,8.75
2022-11-17T02:58:02.159Z,8.70
2022-11-17T03:00:31.935Z,8.68
2022-11-17T03:03:10.529Z,8.67
2022-11-17T03:05:52.239Z,8.63
2022-11-17T03:08:37.766Z,8.61
2022-11-17T03:11:06.864Z,8.60
2022-11-17T03:13:51.607Z,8.58
2022-11-17T03:16:36.852Z,8.55
2022-11-17T03:19:17.569Z,8.54
2022-11-17T03:21:46.669Z,8.52
2022-11-17T03:24:19.085Z,8.49
2022-11-17T03:26:51.348Z,8.47
2022-11-17T03:29:21.388Z,8.42
2022-11-17T03:31:51.511Z,8.45
2022-11-17T03:34:23.850Z,8.40
2022-11-17T03:36:57.398Z,8.42
2022-11-17T03:39:36.319Z,8.40
2022-11-17T03:42:16.841Z,8.35
2022-11-17T03:44:49.308Z,8.41
2022-11-17T03:47:19.842Z,8.41
2022-11-17T03:50:07.571Z,8.40
2022-11-17T03:52:36.007Z,8.40
2022-11-17T03:55:03.038Z,8.41
2022-11-17T03:57:40.237Z,8.42
2022-11-17T04:00:16.822Z,8.41
2022-11-17T04:02:44.772Z,8.41
2022-11-17T04:05:13.460Z,8.40
2022-11-17T04:07:45.092Z,8.41
2022-11-17T04:10:22.590Z,8.41
2022-11-17T04:13:09.381Z,8.42
2022-11-17T04:15:54.430Z,8.39
2022-11-17T04:18:22.132Z,8.42
2022-11-17T04:20:54.297Z,8.40
2022-11-17T04:23:21.285Z,8.39
2022-11-17T04:26:09.111Z,8.42
2022-11-17T04:28:38.283Z,8.44
2022-11-17T04:31:14.040Z,8.43
2022-11-17T04:33:43.556Z,8.42
2022-11-17T04:36:11.737Z,8.45
2022-11-17T04:38:42.582Z,8.46
2022-11-17T04:41:29.051Z,8.46
2022-11-17T04:43:56.264Z,8.45
2022-11-17T04:46:23.723Z,8.46
2022-11-17T04:48:51.619Z,8.46
2022-11-17T04:51:18.152Z,8.42
2022-11-17T04:53:44.843Z,8.44
2022-11-17T04:56:12.044Z,8.44
2022-11-17T04:58:38.873Z,8.45
2022-11-17T05:01:14.413Z,8.38
2022-11-17T05:03:55.818Z,8.42
2022-11-17T05:06:23.672Z,8.41
2022-11-17T05:08:51.350Z,8.40
2022-11-17T05:11:36.639Z,8.40
2022-11-17T05:14:03.438Z,8.38
2022-11-17T05:16:48.371Z,8.37
2022-11-17T05:19:23.721Z,8.30
2022-11-17T05:21:50.698Z,8.31
2022-11-17T05:24:18.177Z,8.28
2022-11-17T05:26:46.699Z,8.28
2022-11-17T05:29:15.216Z,8.22
2022-11-17T05:31:42.087Z,8.18
2022-11-17T05:34:10.556Z,8.22
2022-11-17T05:36:37.044Z,8.18
2022-11-17T05:39:04.047Z,8.20
2022-11-17T05:41:31.228Z,8.14
2022-11-17T05:43:58.218Z,8.16
2022-11-17T05:46:25.354Z,8.14
2022-11-17T05:48:53.116Z,8.12
2022-11-17T05:51:22.493Z,8.06
2022-11-17T05:53:49.723Z,8.07
2022-11-17T05:56:25.233Z,8.08
2022-11-17T05:58:57.444Z,8.06
2022-11-17T06:01:24.055Z,8.06
2022-11-17T06:03:58.425Z,7.96
2022-11-17T06:06:25.585Z,7.96
2022-11-17T06:08:52.151Z,7.98
2022-11-17T06:11:19.428Z,8.00
2022-11-17T06:13:45.875Z,8.01
2022-11-17T06:16:16.165Z,8.01
2022-11-17T06:18:52.640Z,8.03
2022-11-17T06:21:19.125Z,8.03
2022-11-17T06:23:47.535Z,7.98
2022-11-17T06:26:15.143Z,8.03
2022-11-17T06:28:46.146Z,8.06
2022-11-17T06:31:14.381Z,8.02
2022-11-17T06:33:41.405Z,8.01
2022-11-17T06:36:08.926Z,8.04
2022-11-17T06:38:36.235Z,7.99
2022-11-17T06:41:10.448Z,8.02
2022-11-17T06:43:38.644Z,7.97
2022-11-17T06:46:05.764Z,8.02
2022-11-17T06:48:36.339Z,8.01
2022-11-17T06:51:04.908Z,7.98
2022-11-17T06:53:33.713Z,7.98
2022-11-17T06:56:06.747Z,8.00
2022-11-17T06:58:34.265Z,8.01
2022-11-17T07:01:03.535Z,8.00
2022-11-17T07:03:30.122Z,8.02
2022-11-17T07:05:59.831Z,8.00
2022-11-17T07:08:26.752Z,7.99
2022-11-17T07:10:54.877Z,8.00
2022-11-17T07:13:23.055Z,8.01
2022-11-17T07:15:50.450Z,8.02
2022-11-17T07:18:18.801Z,8.02
2022-11-17T07:20:47.038Z,8.02
2022-11-17T07:23:14.903Z,7.97
2022-11-17T07:25:41.479Z,8.03
2022-11-17T07:28:07.983Z,8.04
2022-11-17T07:30:35.050Z,8.03
2022-11-17T07:33:01.796Z,8.04
2022-11-17T07:35:28.360Z,8.02
2022-11-17T07:37:59.698Z,8.06
2022-11-17T07:40:26.318Z,8.05
2022-11-17T07:42:52.878Z,8.07
2022-11-17T07:45:21.363Z,8.02
2022-11-17T07:48:01.982Z,8.06
2022-11-17T07:50:29.698Z,8.08
2022-11-17T07:52:57.432Z,8.05
2022-11-17T07:55:25.595Z,8.08
2022-11-17T07:57:57.073Z,8.10
2022-11-17T08:00:24.235Z,8.13
2022-11-17T08:02:50.858Z,8.13
2022-11-17T08:05:18.410Z,8.14
2022-11-17T08:07:46.390Z,8.14
2022-11-17T08:10:14.086Z,8.18
2022-11-17T08:12:40.661Z,8.18
2022-11-17T08:15:08.057Z,8.21
2022-11-17T08:17:34.618Z,8.21
2022-11-17T08:20:01.174Z,8.23
2022-11-17T08:22:27.734Z,8.27
2022-11-17T08:24:54.239Z,8.29
2022-11-17T08:27:20.768Z,8.30
2022-11-17T08:29:47.388Z,8.32
2022-11-17T08:32:13.940Z,8.31
2022-11-17T08:34:40.465Z,8.34
2022-11-17T08:37:06.976Z,8.31
2022-11-17T08:39:33.477Z,8.39
2022-11-17T08:42:00.114Z,8.37
2022-11-17T08:44:26.663Z,8.42
2022-11-17T08:46:53.394Z,8.43
2022-11-17T08:49:19.911Z,8.50
2022-11-17T08:51:46.366Z,8.45
2022-11-17T08:54:12.860Z,8.53
2022-11-17T08:56:39.672Z,8.54
2022-11-17T08:59:06.137Z,8.63
2022-11-17T09:01:32.716Z,8.67
2022-11-17T09:03:59.561Z,8.70
2022-11-17T09:06:26.023Z,8.72
2022-11-17T09:08:56.354Z,8.74
2022-11-17T09:11:23.457Z,8.79
2022-11-17T09:13:50.050Z,8.81
2022-11-17T09:16:17.189Z,8.85
2022-11-17T09:18:44.234Z,8.85
2022-11-17T09:21:15.116Z,8.93
2022-11-17T09:23:42.555Z,8.98
2022-11-17T09:26:11.744Z,8.99
2022-11-17T09:28:39.108Z,9.01
2022-11-17T09:31:08.286Z,9.02
2022-11-17T09:33:34.973Z,9.03
2022-11-17T09:36:01.756Z,8.97
2022-11-17T09:38:28.219Z,9.10
2022-11-17T09:40:57.069Z,9.13
2022-11-17T09:43:37.906Z,9.13
2022-11-17T09:46:19.518Z,9.20
2022-11-17T09:48:59.003Z,9.16
2022-11-17T09:51:27.722Z,9.20
2022-11-17T09:54:05.787Z,9.21
2022-11-17T09:56:33.814Z,9.22
2022-11-17T09:59:06.078Z,9.21
2022-11-17T10:01:32.725Z,9.23
2022-11-17T10:04:01.571Z,9.24
2022-11-17T10:06:30.648Z,9.23
2022-11-17T10:09:22.502Z,9.24
2022-11-17T10:11:54.402Z,9.27
2022-11-17T10:14:22.512Z,9.27
2022-11-17T10:16:54.813Z,9.32
2022-11-17T10:19:32.985Z,9.33
2022-11-17T10:22:20.724Z,9.38
2022-11-17T10:24:50.990Z,9.42
2022-11-17T10:27:17.476Z,9.49
2022-11-17T10:30:07.236Z,9.56
2022-11-17T10:32:49.178Z,9.62
2022-11-17T10:35:19.388Z,9.81
2022-11-17T10:37:57.024Z,9.90
2022-11-17T10:40:27.004Z,9.96
2022-11-17T10:43:00.457Z,10.06
2022-11-17T10:45:27.485Z,10.13
2022-11-17T10:48:08.999Z,10.15
2022-11-17T10:50:35.595Z,10.27
2022-11-17T10:53:46.210Z,10.32
2022-11-17T10:56:16.959Z,10.36
2022-11-17T10:58:57.972Z,10.47
2022-11-17T11:01:37.107Z,10.50
2022-11-17T11:04:05.808Z,10.44
2022-11-17T11:06:34.761Z,10.39
2022-11-17T11:09:06.991Z,10.37
2022-11-17T11:11:54.184Z,10.41
2022-11-17T11:14:34.092Z,10.46
2022-11-17T11:17:09.089Z,10.40
2022-11-17T11:19:35.697Z,10.41
2022-11-17T11:22:21.142Z,10.44
2022-11-17T11:25:09.981Z,10.45
2022-11-17T11:27:56.161Z,10.41
2022-11-17T11:30:22.930Z,10.48
2022-11-17T11:33:07.202Z,10.51
2022-11-17T11:35:55.351Z,10.52
2022-11-17T11:38:44.782Z,10.46
2022-11-17T11:41:36.155Z,10.60
2022-11-17T11:44:32.491Z,10.57
2022-11-17T11:47:29.816Z,10.59
2022-11-17T11:50:10.658Z,10.48
2022-11-17T11:52:44.806Z,10.55
2022-11-17T11:55:32.450Z,10.60
2022-11-17T11:58:24.402Z,10.60
2022-11-17T12:01:02.381Z,10.73
2022-11-17T12:04:14.430Z,10.76
2022-11-17T12:06:53.989Z,10.80
2022-11-17T12:09:23.622Z,10.85
2022-11-17T12:12:01.616Z,10.84
2022-11-17T12:14:37.987Z,10.79
2022-11-17T12:17:26.083Z,10.80
2022-11-17T12:20:07.467Z,10.80
2022-11-17T12:22:35.889Z,10.89
2022-11-17T12:25:46.839Z,10.88
2022-11-17T12:28:35.779Z,10.86
2022-11-17T12:31:24.425Z,10.86
2022-11-17T12:33:54.133Z,10.87
2022-11-17T12:36:29.736Z,10.88
2022-11-17T12:38:59.515Z,10.81
2022-11-17T12:41:48.037Z,10.86
2022-11-17T12:44:49.917Z,10.89
2022-11-17T12:47:24.650Z,10.87
2022-11-17T12:50:00.143Z,10.92
2022-11-17T12:52:39.217Z,10.96
2022-11-17T12:55:31.643Z,10.98
2022-11-17T12:58:11.650Z,11.03
2022-11-17T13:01:02.029Z,10.98
2022-11-17T13:03:37.485Z,11.09
2022-11-17T13:06:33.760Z,11.16
2022-11-17T13:08:59.734Z,11.12
2022-11-17T13:11:27.081Z,11.23
2022-11-17T13:14:16.613Z,11.22
2022-11-17T13:16:50.278Z,11.25
2022-11-17T13:19:31.733Z,11.21
2022-11-17T13:22:01.056Z,10.98
2022-11-17T13:24:33.311Z,11.15
2022-11-17T13:27:02.808Z,11.20
2022-11-17T13:29:29.529Z,11.23
2022-11-17T13:32:28.415Z,11.21
2022-11-17T13:34:57.640Z,11.23
2022-11-17T13:37:26.940Z,11.27
2022-11-17T13:40:01.896Z,11.31
2022-11-17T13:42:33.458Z,11.14
2022-11-17T13:45:02.862Z,11.23
2022-11-17T13:47:38.461Z,11.21
2022-11-17T13:50:26.809Z,11.14
2022-11-17T13:53:09.127Z,11.21
2022-11-17T13:55:36.434Z,11.13
2022-11-17T13:58:24.486Z,11.18
2022-11-17T14:00:56.041Z,10.94
2022-11-17T14:03:33.209Z,11.13
2022-11-17T14:05:59.812Z,11.05
2022-11-17T14:08:34.342Z,11.05
2022-11-17T14:11:10.107Z,11.02
2022-11-17T14:13:42.899Z,10.98
2022-11-17T14:16:26.634Z,10.95
2022-11-17T14:19:02.607Z,10.90
2022-11-17T14:21:30.130Z,10.89
2022-11-17T14:24:04.211Z,10.79
2022-11-17T14:26:30.821Z,10.89
2022-11-17T14:29:02.237Z,10.88
2022-11-17T14:31:30.813Z,10.88
2022-11-17T14:33:57.957Z,10.85
2022-11-17T14:36:24.650Z,10.81
2022-11-17T14:38:51.453Z,10.73
2022-11-17T14:41:19.558Z,10.93
2022-11-17T14:43:47.006Z,10.98
2022-11-17T14:46:31.684Z,10.96
2022-11-17T14:48:58.153Z,11.02
2022-11-17T14:51:25.624Z,11.01
2022-11-17T14:53:52.404Z,10.98
2022-11-17T14:56:20.506Z,10.99
2022-11-17T14:58:48.071Z,10.93
2022-11-17T15:01:24.145Z,10.93
2022-11-17T15:03:52.868Z,11.01
2022-11-17T15:06:20.464Z,11.01
2022-11-17T15:08:48.217Z,11.04
2022-11-17T15:11:17.739Z,11.01
2022-11-17T15:13:44.288Z,10.91
2022-11-17T15:16:11.942Z,11.03
2022-11-17T15:18:38.440Z,11.01
2022-11-17T15:21:10.336Z,10.94
2022-11-17T15:23:38.340Z,10.92
2022-11-17T15:26:25.808Z,10.86
2022-11-17T15:28:52.281Z,10.83
2022-11-17T15:31:20.083Z,10.78
2022-11-17T15:33:47.899Z,10.62
2022-11-17T15:36:18.813Z,10.66
2022-11-17T15:38:45.651Z,10.68
2022-11-17T15:41:13.339Z,10.66
2022-11-17T15:43:41.614Z,10.65
2022-11-17T15:46:13.645Z,10.60
2022-11-17T15:48:44.969Z,10.62
2022-11-17T15:51:16.970Z,10.61
2022-11-17T15:53:45.363Z,10.57
2022-11-17T15:56:18.779Z,10.45
2022-11-17T15:58:46.620Z,10.53
2022-11-17T16:01:25.360Z,10.40
2022-11-17T16:03:56.304Z,10.48
2022-11-17T16:06:22.869Z,10.41
2022-11-17T16:08:49.471Z,10.35
2022-11-17T16:11:15.976Z,10.28
2022-11-17T16:13:42.523Z,10.15
2022-11-17T16:16:12.899Z,10.24
2022-11-17T16:18:39.962Z,10.17
2022-11-17T16:21:09.556Z,10.13
2022-11-17T16:23:41.046Z,10.11
2022-11-17T16:26:08.787Z,10.00
2022-11-17T16:28:35.368Z,10.07
2022-11-17T16:31:18.159Z,9.92
2022-11-17T16:33:51.449Z,10.00
2022-11-17T16:36:19.138Z,9.86
2022-11-17T16:39:02.273Z,9.91
2022-11-17T16:41:32.161Z,9.90
2022-11-17T16:43:59.236Z,9.79
2022-11-17T16:46:30.726Z,9.82
2022-11-17T16:49:01.889Z,9.79
2022-11-17T16:51:28.738Z,9.77
2022-11-17T16:53:57.708Z,9.75
2022-11-17T16:56:24.647Z,9.73
2022-11-17T16:58:51.684Z,9.66
2022-11-17T17:01:27.184Z,9.68
2022-11-17T17:03:58.183Z,9.54
2022-11-17T17:06:25.505Z,9.65
2022-11-17T17:08:59.962Z,9.59
2022-11-17T17:11:29.221Z,9.57
2022-11-17T17:13:58.825Z,9.49
2022-11-17T17:16:26.078Z,9.51
2022-11-17T17:19:00.381Z,9.47
2022-11-17T17:21:28.790Z,9.49
2022-11-17T17:23:56.118Z,9.48
2022-11-17T17:26:24.709Z,9.46
2022-11-17T17:28:54.201Z,9.43
2022-11-17T17:31:22.448Z,9.42
2022-11-17T17:33:50.411Z,9.35
2022-11-17T17:36:19.513Z,9.23
2022-11-17T17:38:51.630Z,9.30
2022-11-17T17:41:23.215Z,9.32
2022-11-17T17:43:56.099Z,9.26
2022-11-17T17:46:22.651Z,9.28
2022-11-17T17:48:49.127Z,9.29
2022-11-17T17:51:19.356Z,9.23
2022-11-17T17:53:50.028Z,9.03
2022-11-17T17:56:19.376Z,9.23
2022-11-17T17:58:48.619Z,9.24
2022-11-17T18:01:21.000Z,9.22
2022-11-17T18:03:49.541Z,9.20
2022-11-17T18:06:18.387Z,9.17
2022-11-17T18:08:45.793Z,9.12
2022-11-17T18:11:16.336Z,9.15
2022-11-17T18:13:44.741Z,9.14
2022-11-17T18:16:14.552Z,9.10
2022-11-17T18:18:41.267Z,9.06
2022-11-17T18:21:13.913Z,9.05
2022-11-17T18:23:41.335Z,9.03
2022-11-17T18:26:29.104Z,8.97
2022-11-17T18:29:18.281Z,8.90
2022-11-17T18:31:47.263Z,8.95
2022-11-17T18:34:21.004Z,8.87
2022-11-17T18:36:52.477Z,8.88
2022-11-17T18:39:19.418Z,8.85
2022-11-17T18:41:46.081Z,8.81
2022-11-17T18:44:14.217Z,8.84
2022-11-17T18:46:40.974Z,8.80
2022-11-17T18:49:07.521Z,8.79
2022-11-17T18:51:36.871Z,8.75
2022-11-17T18:54:04.163Z,8.75
2022-11-17T18:56:37.771Z,8.74
2022-11-17T18:59:11.235Z,8.71
2022-11-17T19:01:39.650Z,8.70
2022-11-17T19:04:06.753Z,8.65
2022-11-17T19:06:33.327Z,8.49
2022-11-17T19:09:00.786Z,8.56
2022-11-17T19:11:30.133Z,8.48
2022-11-17T19:13:58.177Z,8.57
2022-11-17T19:16:26.212Z,8.55
2022-11-17T19:18:54.572Z,8.50
2022-11-17T19:21:25.830Z,8.48
2022-11-17T19:23:54.300Z,8.25
2022-11-17T19:26:26.155Z,8.42
2022-11-17T19:28:57.550Z,8.44
2022-11-17T19:31:24.937Z,8.38
2022-11-17T19:33:51.472Z,8.40
2022-11-17T19:36:23.177Z,8.37
2022-11-17T19:38:51.238Z,8.21
2022-11-17T19:41:23.530Z,8.28
2022-11-17T19:43:58.173Z,8.16
2022-11-17T19:46:26.336Z,8.17
2022-11-17T19:48:53.194Z,8.25
2022-11-17T19:51:24.405Z,8.25
2022-11-17T19:53:53.591Z,8.23
2022-11-17T19:56:21.732Z,8.18
2022-11-17T19:58:50.307Z,8.18
2022-11-17T20:01:19.561Z,8.18
2022-11-17T20:03:47.103Z,8.18
2022-11-17T20:06:16.282Z,8.12
2022-11-17T20:08:43.296Z,8.12
2022-11-17T20:11:20.847Z,8.11
2022-11-17T20:13:47.655Z,8.09
2022-11-17T20:16:16.636Z,8.08
2022-11-17T20:18:44.479Z,7.90
2022-11-17T20:21:13.845Z,8.03
2022-11-17T20:23:40.860Z,7.91
2022-11-17T20:26:31.935Z,8.04
2022-11-17T20:28:59.569Z,7.98
2022-11-17T20:31:29.137Z,8.02
2022-11-17T20:33:58.144Z,7.95
2022-11-17T20:36:24.668Z,7.93
2022-11-17T20:38:57.198Z,7.97
2022-11-17T20:41:24.647Z,7.80
2022-11-17T20:43:53.349Z,7.91
2022-11-17T20:46:20.883Z,7.91
2022-11-17T20:48:48.161Z,7.88
2022-11-17T20:51:19.987Z,7.88
2022-11-17T20:53:46.590Z,7.81
2022-11-17T20:56:16.149Z,7.85
2022-11-17T20:58:42.979Z,7.77
2022-11-17T21:01:20.305Z,7.64
2022-11-17T21:03:47.611Z,7.78
2022-11-17T21:06:14.709Z,7.80
2022-11-17T21:08:42.924Z,7.75
2022-11-17T21:11:32.452Z,7.79
2022-11-17T21:13:59.576Z,7.63
2022-11-17T21:16:26.029Z,7.73
2022-11-17T21:18:52.584Z,7.76
2022-11-17T21:21:19.055Z,7.80
2022-11-17T21:23:45.523Z,7.80
2022-11-17T21:26:19.126Z,7.79
2022-11-17T21:28:46.741Z,7.78
2022-11-17T21:31:18.964Z,7.59
2022-11-17T21:33:46.358Z,7.70
2022-11-17T21:36:15.769Z,7.75
2022-11-17T21:38:43.665Z,7.41
2022-11-17T21:41:13.438Z,7.75
2022-11-17T21:43:41.847Z,7.75
2022-11-17T21:46:11.493Z,7.77
2022-11-17T21:48:38.705Z,7.76
2022-11-17T21:51:06.806Z,7.76
2022-11-17T21:53:33.473Z,7.59
2022-11-17T21:56:05.396Z,7.72
2022-11-17T21:58:32.357Z,7.80
2022-11-17T22:01:05.309Z,7.50
2022-11-17T22:03:31.935Z,7.85
2022-11-17T22:06:09.804Z,7.84
2022-11-17T22:08:38.047Z,7.83
2022-11-17T22:11:10.371Z,7.91
2022-11-17T22:13:37.291Z,7.95
2022-11-17T22:16:14.412Z,7.83
2022-11-17T22:18:41.427Z,7.72
2022-11-17T22:21:09.244Z,8.00
2022-11-17T22:23:36.037Z,8.00
2022-11-17T22:26:05.600Z,8.07
2022-11-17T22:28:32.309Z,8.09
2022-11-17T22:30:58.889Z,8.10
2022-11-17T22:33:25.407Z,8.10
2022-11-17T22:35:52.000Z,8.16
2022-11-17T22:38:18.618Z,8.14
2022-11-17T22:40:45.201Z,8.17
2022-11-17T22:43:14.907Z,8.18
2022-11-17T22:45:41.874Z,8.19
2022-11-17T22:48:08.861Z,8.23
2022-11-17T22:50:36.197Z,8.23
2022-11-17T22:53:03.270Z,8.12
2022-11-17T22:55:30.138Z,8.12
2022-11-17T22:57:56.751Z,8.23
2022-11-17T23:00:23.764Z,8.30
2022-11-17T23:02:50.323Z,8.29
2022-11-17T23:05:17.304Z,8.08
2022-11-17T23:07:44.155Z,8.35
2022-11-17T23:10:12.098Z,8.37
2022-11-17T23:12:39.370Z,8.38
2022-11-17T23:15:07.274Z,8.34
2022-11-17T23:17:33.838Z,8.33
2022-11-17T23:20:00.375Z,8.25
2022-11-17T23:22:26.854Z,8.41
2022-11-17T23:24:53.342Z,8.35
2022-11-17T23:27:20.239Z,8.29
2022-11-17T23:29:46.694Z,8.40
2022-11-17T23:32:13.175Z,8.41
2022-11-17T23:34:39.655Z,8.46
2022-11-17T23:37:06.114Z,8.46
2022-11-17T23:39:33.364Z,8.47
2022-11-17T23:41:59.839Z,8.44
2022-11-17T23:44:26.337Z,8.51
2022-11-17T23:46:52.860Z,8.49
2022-11-17T23:49:20.050Z,8.53
2022-11-17T23:51:46.671Z,8.56
2022-11-17T23:54:13.271Z,8.42
2022-11-17T23:56:40.333Z,8.50
2022-11-17T23:59:08.182Z,8.59
